Time;durP1;ratioP1;P1;durP2;ratioP2;P2;SDS_P1;SDS_P2;PMS_P1;PMS_P2;Temp;Humidity;BMP_temperature;BMP_pressure;BME280_temperature;BME280_humidity;BME280_pressure;Samples;Min_cycle;Max_cycle;Signal;HPM_P1;HPM_P2
2022/08/14 00:00:14;;;;;;;;;;;26.30;58.80;26.30;98839.00;;;;349932;27;89141;-86
2022/08/14 00:00:25;;;;;;;;;;;26.30;59.70;26.30;98830.00;;;;350338;27;83167;-86
2022/08/14 00:00:40;;;;;;;;;;;26.30;59.40;26.30;98829.00;;;;348463;27;89055;-85
2022/08/14 00:00:52;;;;;;;;;;;26.30;59.60;26.30;98841.00;;;;348963;27;82322;-86
2022/08/14 00:01:05;;;;;;;;;;;26.30;59.50;26.30;98837.00;;;;348378;27;89803;-86
2022/08/14 00:01:22;;;;;;;;;;;26.30;59.10;26.30;98826.00;;;;347411;28;83522;-86
2022/08/14 00:01:34;;;;;;;;;;;26.30;59.00;26.30;98828.00;;;;348343;27;89120;-86
2022/08/14 00:01:47;;;;;;;;;;;26.30;59.00;26.30;98826.00;;;;348943;27;83330;-86
2022/08/14 00:02:06;;;;;;;;;;;26.40;58.90;26.30;98828.00;;;;348309;27;92538;-86
2022/08/14 00:02:18;;;;;;;;;;;26.30;59.80;26.30;98830.00;;;;348851;27;83305;-86
2022/08/14 00:02:29;;;;;;;;;;;26.30;59.30;26.30;98830.00;;;;350016;27;87734;-86
2022/08/14 00:02:42;;;;;;;;;;;26.30;59.40;26.30;98826.00;;;;350233;27;83427;-86
2022/08/14 00:02:54;;;;;;;;;;;26.30;59.80;26.30;98826.00;;;;348180;27;92667;-85
2022/08/14 00:03:20;;;;;;;;;;;26.30;59.70;26.30;98826.00;;;;348833;27;82500;-86
2022/08/14 00:03:40;;;;;;;;;;;26.30;59.90;26.30;98825.00;;;;348327;27;90532;-86
2022/08/14 00:03:52;;;;;;;;;;;26.30;60.60;26.30;98816.00;;;;348828;27;83465;-86
2022/08/14 00:04:05;;;;;;;;;;;26.30;59.90;26.30;98831.00;;;;348429;27;91144;-85
2022/08/14 00:04:36;;;;;;;;;;;26.30;59.40;26.30;98825.00;;;;348885;27;83278;-86
2022/08/14 00:04:56;;;;;;;;;;;26.30;60.50;26.30;98815.00;;;;348320;27;92031;-86
2022/08/14 00:05:08;;;;;;;;;;;26.30;60.70;26.20;98819.00;;;;346022;28;83247;-86
2022/08/14 00:05:21;;;;;;;;;;;26.30;61.20;26.20;98817.00;;;;347015;28;91460;-86
2022/08/14 00:05:33;;;;;;;;;;;26.30;61.10;26.20;98817.00;;;;348876;27;83138;-86
2022/08/14 00:05:46;;;;;;;;;;;26.30;61.40;26.30;98818.00;;;;348384;27;92491;-86
2022/08/14 00:06:09;;;;;;;;;;;26.30;61.20;26.30;98812.00;;;;347419;28;83481;-86
2022/08/14 00:06:36;;;;;;;;;;;26.30;61.70;26.30;98822.00;;;;349866;27;89495;-86
2022/08/14 00:06:48;;;;;;;;;;;26.30;60.60;26.30;98815.00;;;;350227;27;82396;-86
2022/08/14 00:07:00;;;;;;;;;;;26.30;60.70;26.30;98817.00;;;;348364;27;92265;-86
2022/08/14 00:07:12;;;;;;;;;;;26.30;60.60;26.30;98816.00;;;;348948;27;82432;-86
2022/08/14 00:07:25;;;;;;;;;;;26.30;60.40;26.20;98814.00;;;;347118;28;91485;-86
2022/08/14 00:07:37;;;;;;;;;;;26.30;62.30;26.20;98807.00;;;;348789;27;83381;-86
2022/08/14 00:07:52;;;;;;;;;;;26.30;63.20;26.20;98813.00;;;;347146;28;88746;-86
2022/08/14 00:08:06;;;;;;;;;;;26.30;62.40;26.20;98814.00;;;;344764;28;83341;-86
2022/08/14 00:08:25;;;;;;;;;;;26.30;61.70;26.30;98814.00;;;;347139;28;90173;-86
2022/08/14 00:08:56;;;;;;;;;;;26.30;60.80;26.20;98803.00;;;;348711;27;83398;-85
2022/08/14 00:09:10;;;;;;;;;;;26.30;63.20;26.30;98805.00;;;;347076;28;89147;-86
2022/08/14 00:09:22;;;;;;;;;;;26.30;61.80;26.20;98806.00;;;;347587;28;83479;-86
2022/08/14 00:09:34;;;;;;;;;;;26.30;62.00;26.10;98803.00;;;;348403;27;87992;-86
2022/08/14 00:10:06;;;;;;;;;;;26.30;62.40;26.10;98807.00;;;;348902;27;83235;-86
2022/08/14 00:10:38;;;;;;;;;;;26.30;63.30;26.00;98810.00;;;;348480;27;90162;-86
2022/08/14 00:11:04;;;;;;;;;;;26.30;64.00;26.10;98810.00;;;;348779;27;83416;-86
2022/08/14 00:11:17;;;;;;;;;;;26.30;64.90;26.00;98810.00;;;;346827;28;92107;-86
2022/08/14 00:11:28;;;;;;;;;;;26.30;64.00;26.00;98804.00;;;;346889;28;82392;-86
2022/08/14 00:11:42;;;;;;;;;;;26.30;64.20;26.00;98810.00;;;;345340;28;89885;-86
2022/08/14 00:11:55;;;;;;;;;;;26.30;64.50;26.00;98808.00;;;;345925;28;82530;-85
2022/08/14 00:12:07;;;;;;;;;;;26.30;64.80;26.00;98806.00;;;;346958;28;88316;-86
2022/08/14 00:12:36;;;;;;;;;;;26.20;64.60;26.00;98806.00;;;;346140;28;83343;-85
2022/08/14 00:12:52;;;;;;;;;;;26.30;64.40;26.00;98807.00;;;;342730;28;91628;-86
2022/08/14 00:13:07;;;;;;;;;;;26.20;64.00;26.10;98805.00;;;;344695;28;83226;-86
2022/08/14 00:13:27;;;;;;;;;;;26.20;63.90;26.00;98800.00;;;;347119;28;90789;-86
2022/08/14 00:13:41;;;;;;;;;;;26.30;64.00;26.00;98797.00;;;;346024;28;82496;-86
2022/08/14 00:14:02;;;;;;;;;;;26.20;64.10;26.00;98796.00;;;;346972;28;91759;-85
2022/08/14 00:14:14;;;;;;;;;;;26.20;64.40;26.00;98801.00;;;;347432;27;82357;-87
2022/08/14 00:14:28;;;;;;;;;;;26.20;64.40;26.00;98801.00;;;;345632;28;92491;-87
2022/08/14 00:14:39;;;;;;;;;;;26.20;64.70;26.10;98797.00;;;;346177;28;83219;-86
2022/08/14 00:14:53;;;;;;;;;;;26.20;64.40;26.10;98800.00;;;;346905;28;92899;-86
2022/08/14 00:15:14;;;;;;;;;;;26.20;63.80;26.10;98804.00;;;;344761;28;83290;-86
2022/08/14 00:15:30;;;;;;;;;;;26.20;63.00;26.20;98802.00;;;;345608;28;91891;-86
2022/08/14 00:15:55;;;;;;;;;;;26.20;62.40;26.20;98801.00;;;;347476;28;82560;-87
2022/08/14 00:16:12;;;;;;;;;;;26.20;63.20;26.10;98798.00;;;;348364;27;89269;-87
2022/08/14 00:16:43;;;;;;;;;;;26.20;64.10;26.10;98799.00;;;;347482;28;83406;-86
2022/08/14 00:16:56;;;;;;;;;;;26.30;66.10;26.10;98798.00;;;;346846;27;90759;-86
2022/08/14 00:17:11;;;;;;;;;;;26.20;66.30;26.10;98798.00;;;;347385;28;83480;-86
2022/08/14 00:17:23;;;;;;;;;;;26.20;66.30;26.10;98795.00;;;;345538;28;93108;-86
2022/08/14 00:17:35;;;;;;;;;;;26.20;65.50;26.10;98792.00;;;;344556;28;82578;-86
2022/08/14 00:17:49;;;;;;;;;;;26.20;65.10;26.10;98800.00;;;;344221;28;92305;-86
2022/08/14 00:18:05;;;;;;;;;;;26.20;65.50;26.00;98801.00;;;;344680;28;83437;-86
2022/08/14 00:18:18;;;;;;;;;;;26.20;66.90;26.00;98800.00;;;;345502;28;92237;-86
2022/08/14 00:18:50;;;;;;;;;;;26.20;66.90;26.00;98810.00;;;;344554;28;83532;-86
2022/08/14 00:19:22;;;;;;;;;;;26.20;66.20;26.00;98802.00;;;;345638;28;91158;-86
2022/08/14 00:19:34;;;;;;;;;;;26.20;66.80;26.10;98805.00;;;;346047;28;83335;-86
2022/08/14 00:19:51;;;;;;;;;;;26.20;66.50;26.10;98804.00;;;;344243;28;90954;-86
2022/08/14 00:20:07;;;;;;;;;;;26.20;66.90;26.20;98803.00;;;;346069;28;83307;-86
2022/08/14 00:20:23;;;;;;;;;;;26.20;65.80;26.20;98804.00;;;;345432;28;91489;-86
2022/08/14 00:20:46;;;;;;;;;;;26.20;65.40;26.20;98801.00;;;;344688;28;83409;-86
2022/08/14 00:20:59;;;;;;;;;;;26.20;64.70;26.20;98799.00;;;;345607;28;88744;-86
2022/08/14 00:21:12;;;;;;;;;;;26.30;65.10;26.20;98800.00;;;;347459;28;83427;-86
2022/08/14 00:21:24;;;;;;;;;;;26.30;64.80;26.10;98811.00;;;;347109;28;89526;-86
2022/08/14 00:21:41;;;;;;;;;;;26.30;66.30;26.10;98802.00;;;;344745;28;82433;-86
2022/08/14 00:21:53;;;;;;;;;;;26.30;66.90;26.10;98803.00;;;;345621;28;91333;-86
2022/08/14 00:22:05;;;;;;;;;;;26.30;66.60;26.10;98805.00;;;;346017;28;83230;-86
2022/08/14 00:22:17;;;;;;;;;;;26.30;66.90;26.10;98806.00;;;;346990;28;89272;-86
2022/08/14 00:22:49;;;;;;;;;;;26.30;67.10;26.00;98805.00;;;;347506;28;82398;-86
2022/08/14 00:23:09;;;;;;;;;;;26.30;67.60;26.00;98805.00;;;;347080;28;89951;-86
2022/08/14 00:23:28;;;;;;;;;;;26.30;67.90;26.10;98803.00;;;;347514;28;83243;-86
2022/08/14 00:23:39;;;;;;;;;;;26.30;67.90;26.10;98813.00;;;;344292;28;89001;-86
2022/08/14 00:23:52;;;;;;;;;;;26.30;67.00;26.10;98801.00;;;;347485;28;83351;-86
2022/08/14 00:24:05;;;;;;;;;;;26.20;67.00;26.10;98805.00;;;;346975;28;92095;-86
2022/08/14 00:24:20;;;;;;;;;;;26.30;67.00;26.20;98802.00;;;;344612;28;83567;-86
2022/08/14 00:24:39;;;;;;;;;;;26.30;66.40;26.20;98806.00;;;;345622;28;91423;-86
2022/08/14 00:24:51;;;;;;;;;;;26.30;66.40;26.20;98799.00;;;;345990;28;83327;-86
2022/08/14 00:25:04;;;;;;;;;;;26.30;65.50;26.20;98800.00;;;;345694;28;88770;-86
2022/08/14 00:25:16;;;;;;;;;;;26.30;65.70;26.20;98799.00;;;;344827;28;83364;-86
2022/08/14 00:25:28;;;;;;;;;;;26.30;66.60;26.20;98802.00;;;;345669;28;90259;-86
2022/08/14 00:25:53;;;;;;;;;;;26.30;66.40;26.10;98806.00;;;;347551;28;82329;-86
2022/08/14 00:26:17;;;;;;;;;;;26.30;66.30;26.20;98805.00;;;;345517;28;92809;-86
2022/08/14 00:26:33;;;;;;;;;;;26.20;67.70;26.30;98802.00;;;;347497;28;82481;-86
2022/08/14 00:26:45;;;;;;;;;;;26.30;66.50;26.30;98800.00;;;;346947;28;92223;-86
2022/08/14 00:26:57;;;;;;;;;;;26.30;67.10;26.30;98804.00;;;;348747;27;83586;-86
2022/08/14 00:27:13;;;;;;;;;;;26.30;66.80;26.20;98809.00;;;;347073;28;90384;-86
2022/08/14 00:27:27;;;;;;;;;;;26.30;67.40;26.20;98807.00;;;;348900;27;83285;-86
2022/08/14 00:27:45;;;;;;;;;;;26.30;67.20;26.30;98799.00;;;;345617;28;90574;-87
2022/08/14 00:28:07;;;;;;;;;;;26.30;66.20;26.20;98802.00;;;;344642;28;83508;-86
2022/08/14 00:28:24;;;;;;;;;;;26.30;68.10;26.20;98798.00;;;;345440;28;92491;-86
2022/08/14 00:28:43;;;;;;;;;;;26.30;67.30;26.20;98797.00;;;;346031;28;83256;-86
2022/08/14 00:28:56;;;;;;;;;;;26.30;67.80;26.20;98795.00;;;;344104;28;92528;-86
2022/08/14 00:29:08;;;;;;;;;;;26.30;68.10;26.20;98793.00;;;;346023;28;83459;-86
2022/08/14 00:29:20;;;;;;;;;;;26.30;68.50;26.30;98796.00;;;;345627;28;91347;-86
2022/08/14 00:29:35;;;;;;;;;;;26.30;68.70;26.30;98798.00;;;;345934;28;83518;-87
2022/08/14 00:29:53;;;;;;;;;;;26.40;67.90;26.30;98798.00;;;;345764;28;90464;-87
2022/08/14 00:30:06;;;;;;;;;;;26.40;67.90;26.40;98791.00;;;;346070;28;83423;-86
2022/08/14 00:30:18;;;;;;;;;;;26.30;67.40;26.40;98795.00;;;;344093;28;91414;-86
2022/08/14 00:30:29;;;;;;;;;;;26.40;68.80;26.30;98793.00;;;;344666;28;83401;-86
2022/08/14 00:30:41;;;;;;;;;;;26.30;69.00;26.20;98791.00;;;;342806;28;92889;-87
2022/08/14 00:30:56;;;;;;;;;;;26.40;69.50;26.10;98791.00;;;;346112;28;83297;-86
2022/08/14 00:31:10;;;;;;;;;;;26.30;69.80;26.10;98792.00;;;;344265;28;91451;-86
2022/08/14 00:31:22;;;;;;;;;;;26.40;69.90;26.20;98788.00;;;;347441;28;83385;-87
2022/08/14 00:31:54;;;;;;;;;;;26.30;69.50;26.30;98792.00;;;;337375;28;91076;-86
2022/08/14 00:32:07;;;;;;;;;;;26.40;68.00;26.30;98791.00;;;;337798;28;83299;-86
2022/08/14 00:32:39;;;;;;;;;;;26.30;68.50;26.20;98786.00;;;;337417;28;90858;-87
2022/08/14 00:33:11;;;;;;;;;;;26.30;69.60;26.20;98786.00;;;;337766;28;83240;-86
2022/08/14 00:33:27;;;;;;;;;;;26.40;69.70;26.30;98781.00;;;;338763;28;89205;-87
2022/08/14 00:33:58;;;;;;;;;;;26.40;68.50;26.40;98782.00;;;;340373;28;83946;-86
2022/08/14 00:34:31;;;;;;;;;;;26.40;68.50;26.20;98783.00;;;;339885;28;92578;-87
2022/08/14 00:35:00;;;;;;;;;;;26.30;69.40;26.20;98782.00;;;;340433;28;83356;-86
2022/08/14 00:35:12;;;;;;;;;;;26.40;69.80;26.10;98782.00;;;;341397;28;92356;-87
2022/08/14 00:35:24;;;;;;;;;;;26.40;69.90;26.10;98783.00;;;;339158;28;83320;-86
2022/08/14 00:35:56;;;;;;;;;;;26.40;70.00;26.10;98777.00;;;;337358;28;90277;-86
2022/08/14 00:36:29;;;;;;;;;;;26.40;70.30;26.30;98776.00;;;;337766;28;83474;-87
2022/08/14 00:37:00;;;;;;;;;;;26.40;69.40;26.20;98783.00;;;;338544;28;91282;-87
2022/08/14 00:37:13;;;;;;;;;;;26.40;69.30;26.20;98775.00;;;;337814;28;83566;-86
2022/08/14 00:37:24;;;;;;;;;;;26.40;69.20;26.30;98774.00;;;;336011;28;92178;-86
2022/08/14 00:37:40;;;;;;;;;;;26.40;68.70;26.20;98776.00;;;;336258;28;83348;-86
2022/08/14 00:37:54;;;;;;;;;;;26.40;69.10;26.20;98772.00;;;;337327;28;92340;-87
2022/08/14 00:38:06;;;;;;;;;;;26.40;69.20;26.10;98769.00;;;;336490;28;83402;-86
2022/08/14 00:38:19;;;;;;;;;;;26.40;69.70;26.20;98769.00;;;;336037;28;87710;-86
2022/08/14 00:38:31;;;;;;;;;;;26.30;70.10;26.20;98767.00;;;;336489;28;82430;-86
2022/08/14 00:38:45;;;;;;;;;;;26.40;69.50;26.10;98768.00;;;;336006;28;92295;-86
2022/08/14 00:38:57;;;;;;;;;;;26.40;70.50;26.10;98774.00;;;;337695;28;82559;-86
2022/08/14 00:39:12;;;;;;;;;;;26.30;70.40;26.20;98763.00;;;;335992;28;92358;-86
2022/08/14 00:39:24;;;;;;;;;;;26.40;69.90;26.10;98767.00;;;;339066;28;83452;-87
2022/08/14 00:39:36;;;;;;;;;;;26.40;69.90;26.20;98769.00;;;;338579;28;91497;-86
2022/08/14 00:39:49;;;;;;;;;;;26.40;69.50;26.20;98769.00;;;;340364;28;83433;-87
2022/08/14 00:40:02;;;;;;;;;;;26.30;69.40;26.20;98770.00;;;;338510;28;92953;-86
2022/08/14 00:40:34;;;;;;;;;;;26.30;69.60;26.30;98772.00;;;;339032;28;83546;-86
2022/08/14 00:40:46;;;;;;;;;;;26.40;69.20;26.30;98765.00;;;;336050;28;92309;-87
2022/08/14 00:41:05;;;;;;;;;;;26.40;68.60;26.10;98775.00;;;;340466;28;82463;-86
2022/08/14 00:41:17;;;;;;;;;;;26.30;69.10;26.10;98764.00;;;;341451;28;88353;-86
2022/08/14 00:41:31;;;;;;;;;;;26.40;69.80;26.10;98770.00;;;;339093;28;82331;-86
2022/08/14 00:41:45;;;;;;;;;;;26.40;69.70;26.30;98768.00;;;;339889;28;92393;-86
2022/08/14 00:41:57;;;;;;;;;;;26.40;68.70;26.40;98773.00;;;;340431;28;83374;-86
2022/08/14 00:42:08;;;;;;;;;;;26.40;68.60;26.40;98773.00;;;;338695;28;88063;-86
2022/08/14 00:42:32;;;;;;;;;;;26.40;68.50;26.30;98761.00;;;;340437;28;82495;-86
2022/08/14 00:43:03;;;;;;;;;;;26.40;68.90;26.10;98771.00;;;;339866;28;93063;-86
2022/08/14 00:43:16;;;;;;;;;;;26.40;69.40;26.10;98765.00;;;;340396;28;83527;-86
2022/08/14 00:43:28;;;;;;;;;;;26.40;69.20;26.30;98765.00;;;;340024;28;92034;-87
2022/08/14 00:43:43;;;;;;;;;;;26.40;68.70;26.20;98773.00;;;;339055;28;83390;-87
2022/08/14 00:43:57;;;;;;;;;;;26.40;69.10;26.30;98764.00;;;;337387;28;91123;-86
2022/08/14 00:44:09;;;;;;;;;;;26.40;69.30;26.40;98768.00;;;;339107;28;83424;-86
2022/08/14 00:44:21;;;;;;;;;;;26.40;69.10;26.50;98765.00;;;;337287;28;91382;-86
2022/08/14 00:44:43;;;;;;;;;;;26.40;69.10;26.20;98768.00;;;;339142;28;83409;-86
2022/08/14 00:44:55;;;;;;;;;;;26.40;69.30;26.20;98765.00;;;;340008;28;88925;-86
2022/08/14 00:45:09;;;;;;;;;;;26.40;69.30;26.10;98766.00;;;;339117;28;83634;-86
2022/08/14 00:45:24;;;;;;;;;;;26.40;69.60;26.10;98764.00;;;;339989;28;92354;-86
2022/08/14 00:45:41;;;;;;;;;;;26.40;69.50;26.10;98762.00;;;;340423;28;82460;-86
2022/08/14 00:45:53;;;;;;;;;;;26.40;69.30;26.10;98761.00;;;;338737;28;88819;-85
2022/08/14 00:46:08;;;;;;;;;;;26.40;69.30;26.20;98759.00;;;;340364;28;83274;-86
2022/08/14 00:46:40;;;;;;;;;;;26.40;69.80;26.20;98762.00;;;;337352;28;90253;-86
2022/08/14 00:46:52;;;;;;;;;;;26.40;68.50;26.10;98759.00;;;;339169;28;82224;-86
2022/08/14 00:47:09;;;;;;;;;;;26.40;69.00;26.10;98763.00;;;;340032;28;89103;-86
2022/08/14 00:47:25;;;;;;;;;;;26.30;69.50;26.10;98764.00;;;;338969;28;82544;-86
2022/08/14 00:47:38;;;;;;;;;;;26.30;69.60;26.10;98765.00;;;;337212;28;92332;-86
2022/08/14 00:47:57;;;;;;;;;;;26.40;69.50;26.10;98757.00;;;;339043;28;83423;-86
2022/08/14 00:48:10;;;;;;;;;;;26.40;69.70;26.10;98765.00;;;;339856;28;91278;-86
2022/08/14 00:48:22;;;;;;;;;;;26.30;69.50;26.00;98768.00;;;;340384;28;83312;-86
2022/08/14 00:48:47;;;;;;;;;;;26.30;69.60;26.10;98761.00;;;;337309;28;92349;-86
2022/08/14 00:48:59;;;;;;;;;;;26.30;69.10;26.10;98765.00;;;;336397;28;83516;-86
2022/08/14 00:49:13;;;;;;;;;;;26.30;69.20;26.00;98768.00;;;;339964;28;92137;-87
2022/08/14 00:49:27;;;;;;;;;;;26.30;69.70;26.00;98766.00;;;;336473;28;83426;-87
2022/08/14 00:49:41;;;;;;;;;;;26.30;69.60;26.00;98766.00;;;;337191;28;92145;-86
2022/08/14 00:49:55;;;;;;;;;;;26.30;69.50;26.00;98767.00;;;;336529;28;83362;-86
2022/08/14 00:50:08;;;;;;;;;;;26.30;70.00;26.00;98762.00;;;;337333;28;91284;-86
2022/08/14 00:50:29;;;;;;;;;;;26.30;70.40;26.10;98764.00;;;;336467;28;82490;-86
2022/08/14 00:50:41;;;;;;;;;;;26.30;69.80;26.00;98762.00;;;;337213;28;92463;-86
2022/08/14 00:50:54;;;;;;;;;;;26.30;69.60;26.00;98770.00;;;;337802;28;83248;-87
2022/08/14 00:51:07;;;;;;;;;;;26.30;69.70;26.00;98767.00;;;;339984;28;90430;-86
2022/08/14 00:51:20;;;;;;;;;;;26.30;69.80;26.10;98762.00;;;;338970;28;83424;-86
2022/08/14 00:51:33;;;;;;;;;;;26.30;69.80;26.10;98761.00;;;;339920;28;91212;-88
2022/08/14 00:51:50;;;;;;;;;;;26.30;69.50;26.00;98762.00;;;;340506;28;82579;-86
2022/08/14 00:52:04;;;;;;;;;;;26.30;69.70;26.00;98761.00;;;;338634;28;89278;-86
2022/08/14 00:52:17;;;;;;;;;;;26.30;69.60;26.00;98768.00;;;;338980;28;83520;-86
2022/08/14 00:52:30;;;;;;;;;;;26.20;69.70;25.90;98763.00;;;;337396;28;89220;-86
2022/08/14 00:52:47;;;;;;;;;;;26.20;70.10;25.90;98763.00;;;;339014;28;82699;-86
2022/08/14 00:53:04;;;;;;;;;;;26.30;70.60;26.00;98770.00;;;;337221;28;93163;-86
2022/08/14 00:53:22;;;;;;;;;;;26.30;70.90;26.10;98763.00;;;;335202;28;82339;-86
2022/08/14 00:53:35;;;;;;;;;;;26.30;69.80;26.10;98764.00;;;;337377;28;88729;-86
2022/08/14 00:53:49;;;;;;;;;;;26.20;69.10;26.00;98768.00;;;;337750;28;82554;-86
2022/08/14 00:54:03;;;;;;;;;;;26.30;69.60;26.00;98767.00;;;;338648;28;90732;-86
2022/08/14 00:54:21;;;;;;;;;;;26.20;70.10;26.10;98772.00;;;;340272;28;83440;-86
2022/08/14 00:54:36;;;;;;;;;;;26.30;69.70;26.10;98762.00;;;;337458;28;88802;-86
2022/08/14 00:54:53;;;;;;;;;;;26.20;69.10;26.10;98767.00;;;;339128;28;82273;-87
2022/08/14 00:55:09;;;;;;;;;;;26.20;69.90;26.00;98768.00;;;;340022;28;90241;-87
2022/08/14 00:55:26;;;;;;;;;;;26.20;70.70;26.00;98765.00;;;;340450;28;83153;-86
2022/08/14 00:55:41;;;;;;;;;;;26.20;70.90;26.00;98761.00;;;;339943;28;88675;-86
2022/08/14 00:55:56;;;;;;;;;;;26.20;70.80;26.00;98756.00;;;;340431;28;83241;-86
2022/08/14 00:56:08;;;;;;;;;;;26.20;70.50;26.00;98765.00;;;;338659;28;90483;-86
2022/08/14 00:56:24;;;;;;;;;;;26.30;71.40;26.00;98762.00;;;;339105;28;82480;-86
2022/08/14 00:56:42;;;;;;;;;;;26.30;71.70;26.00;98763.00;;;;337248;28;92233;-86
2022/08/14 00:56:53;;;;;;;;;;;26.20;71.70;26.00;98761.00;;;;337754;28;83373;-87
2022/08/14 00:57:06;;;;;;;;;;;26.20;71.50;25.90;98757.00;;;;335985;28;90679;-86
2022/08/14 00:57:20;;;;;;;;;;;26.20;71.30;25.90;98758.00;;;;339140;28;82487;-87
2022/08/14 00:57:34;;;;;;;;;;;26.20;71.50;25.90;98755.00;;;;340038;28;88436;-86
2022/08/14 00:58:29;;;;;;;;;;;26.20;71.60;25.90;98759.00;;;;339039;28;83510;-87
2022/08/14 00:58:29;;;;;;;;;;;26.20;71.80;26.00;98772.00;;;;338530;28;89789;-86
2022/08/14 00:58:45;;;;;;;;;;;26.20;71.90;26.00;98770.00;;;;339109;28;83272;-86
2022/08/14 00:58:59;;;;;;;;;;;26.20;71.80;26.00;98760.00;;;;339982;28;88686;-86
2022/08/14 00:59:11;;;;;;;;;;;26.20;71.80;26.00;98763.00;;;;340302;28;83376;-86
2022/08/14 00:59:27;;;;;;;;;;;26.20;71.50;25.90;98762.00;;;;337353;28;91653;-86
2022/08/14 00:59:40;;;;;;;;;;;26.20;72.00;26.00;98763.00;;;;337671;28;83239;-86
2022/08/14 00:59:52;;;;;;;;;;;26.20;72.40;26.00;98760.00;;;;340050;28;89228;-86
2022/08/14 01:00:13;;;;;;;;;;;26.20;72.30;25.90;98763.00;;;;339037;28;83466;-86
2022/08/14 01:00:44;;;;;;;;;;;26.20;72.60;25.90;98765.00;;;;337274;28;91555;-86
2022/08/14 01:01:09;;;;;;;;;;;26.20;73.00;25.90;98762.00;;;;337691;28;83529;-86
2022/08/14 01:01:22;;;;;;;;;;;26.20;74.00;26.00;98768.00;;;;339969;28;89772;-86
2022/08/14 01:01:35;;;;;;;;;;;26.20;72.50;26.00;98764.00;;;;340426;28;83426;-86
2022/08/14 01:01:47;;;;;;;;;;;26.20;73.30;26.10;98766.00;;;;338683;28;91647;-86
2022/08/14 01:02:00;;;;;;;;;;;26.20;72.70;26.10;98761.00;;;;337721;28;83339;-85
2022/08/14 01:02:11;;;;;;;;;;;26.20;73.20;26.00;98764.00;;;;337255;28;90390;-86
2022/08/14 01:02:23;;;;;;;;;;;26.20;73.10;25.90;98763.00;;;;336402;28;83495;-86
2022/08/14 01:02:40;;;;;;;;;;;26.20;73.30;25.90;98766.00;;;;340004;28;88970;-85
2022/08/14 01:02:54;;;;;;;;;;;26.20;73.40;25.90;98754.00;;;;338974;28;83221;-86
2022/08/14 01:03:09;;;;;;;;;;;26.20;74.00;26.00;98762.00;;;;338649;28;91162;-86
2022/08/14 01:03:21;;;;;;;;;;;26.20;73.90;25.90;98771.00;;;;337768;28;83364;-86
2022/08/14 01:03:36;;;;;;;;;;;26.20;73.60;25.90;98764.00;;;;338589;28;90695;-86
2022/08/14 01:03:48;;;;;;;;;;;26.20;73.90;25.90;98764.00;;;;337730;28;83347;-85
2022/08/14 01:04:04;;;;;;;;;;;26.20;74.10;26.00;98769.00;;;;340056;28;88700;-85
2022/08/14 01:04:16;;;;;;;;;;;26.20;74.00;26.10;98766.00;;;;339023;28;83514;-86
2022/08/14 01:04:48;;;;;;;;;;;26.20;73.00;26.10;98766.00;;;;339985;28;91743;-86
2022/08/14 01:05:06;;;;;;;;;;;26.20;73.20;26.10;98763.00;;;;339115;28;83400;-86
2022/08/14 01:05:24;;;;;;;;;;;26.20;73.50;26.10;98770.00;;;;337406;28;88705;-86
2022/08/14 01:05:39;;;;;;;;;;;26.30;72.90;26.00;98765.00;;;;336433;28;83404;-87
2022/08/14 01:06:02;;;;;;;;;;;26.20;74.20;26.00;98764.00;;;;337370;28;87728;-86
2022/08/14 01:06:17;;;;;;;;;;;26.20;74.20;26.00;98760.00;;;;338943;28;83602;-86
2022/08/14 01:06:31;;;;;;;;;;;26.30;74.20;26.00;98766.00;;;;337324;28;89601;-86
2022/08/14 01:06:45;;;;;;;;;;;26.20;74.30;25.90;98766.00;;;;337801;28;83311;-85
2022/08/14 01:06:57;;;;;;;;;;;26.20;74.20;25.90;98766.00;;;;339933;28;91983;-86
2022/08/14 01:07:10;;;;;;;;;;;26.20;74.40;25.90;98764.00;;;;339016;28;83482;-85
2022/08/14 01:07:25;;;;;;;;;;;26.20;74.50;25.90;98763.00;;;;338704;28;89197;-86
2022/08/14 01:07:38;;;;;;;;;;;26.20;74.70;25.90;98766.00;;;;337654;28;82599;-86
2022/08/14 01:08:07;;;;;;;;;;;26.30;74.90;26.10;98762.00;;;;335928;28;92315;-86
2022/08/14 01:08:39;;;;;;;;;;;26.30;73.60;26.00;98763.00;;;;336385;28;82454;-86
2022/08/14 01:09:08;;;;;;;;;;;26.20;75.10;26.10;98763.00;;;;335977;28;90511;-86
2022/08/14 01:09:21;;;;;;;;;;;26.20;73.80;26.10;98760.00;;;;337731;28;83203;-86
2022/08/14 01:09:33;;;;;;;;;;;26.20;73.70;26.10;98759.00;;;;338476;28;92533;-86
2022/08/14 01:09:50;;;;;;;;;;;26.20;74.20;26.10;98758.00;;;;337778;28;83128;-86
2022/08/14 01:10:03;;;;;;;;;;;26.20;74.70;26.10;98760.00;;;;337294;28;89241;-86
2022/08/14 01:10:16;;;;;;;;;;;26.20;74.30;26.10;98762.00;;;;339099;28;83342;-86
2022/08/14 01:10:59;;;;;;;;;;;26.20;72.90;26.00;98762.00;;;;337698;28;82580;-86
2022/08/14 01:11:16;;;;;;;;;;;26.30;75.40;26.00;98759.00;;;;338705;28;89529;-86
2022/08/14 01:11:30;;;;;;;;;;;26.20;76.70;26.10;98760.00;;;;339465;28;83367;-86
2022/08/14 01:11:48;;;;;;;;;;;26.20;75.60;26.10;98766.00;;;;338754;28;89025;-86
2022/08/14 01:12:15;;;;;;;;;;;26.20;75.10;26.00;98763.00;;;;339032;28;84155;-85
2022/08/14 01:12:40;;;;;;;;;;;26.20;77.80;26.10;98759.00;;;;338520;28;93376;-87
2022/08/14 01:12:53;;;;;;;;;;;26.30;76.50;26.10;98764.00;;;;341634;28;83374;-86
2022/08/14 01:13:05;;;;;;;;;;;26.20;76.50;26.10;98763.00;;;;338666;28;88973;-86
2022/08/14 01:13:25;;;;;;;;;;;26.30;76.40;26.10;98763.00;;;;340450;28;83156;-86
2022/08/14 01:14:00;;;;;;;;;;;26.20;75.40;26.20;98764.00;;;;339781;28;91633;-85
2022/08/14 01:14:16;;;;;;;;;;;26.20;75.90;26.30;98761.00;;;;340358;28;83394;-85
2022/08/14 01:14:39;;;;;;;;;;;26.30;75.80;26.20;98763.00;;;;341265;28;91641;-86
2022/08/14 01:14:53;;;;;;;;;;;26.30;75.70;26.30;98759.00;;;;340308;28;83387;-86
2022/08/14 01:15:09;;;;;;;;;;;26.30;75.40;26.20;98761.00;;;;338647;28;91490;-86
2022/08/14 01:15:25;;;;;;;;;;;26.30;77.60;26.20;98757.00;;;;339035;28;82470;-86
2022/08/14 01:15:58;;;;;;;;;;;26.30;76.90;26.10;98769.00;;;;339882;28;92367;-86
2022/08/14 01:16:14;;;;;;;;;;;26.30;77.60;26.10;98763.00;;;;340343;28;82526;-86
2022/08/14 01:16:26;;;;;;;;;;;26.30;77.90;26.10;98764.00;;;;338620;28;92302;-86
2022/08/14 01:16:41;;;;;;;;;;;26.30;77.60;26.10;98758.00;;;;343123;28;82541;-86
2022/08/14 01:16:58;;;;;;;;;;;26.30;77.70;26.10;98760.00;;;;341240;28;89259;-86
2022/08/14 01:17:11;;;;;;;;;;;26.30;77.90;26.10;98756.00;;;;340352;28;83346;-86
2022/08/14 01:21:02;;;;;;;;;;;26.30;77.80;26.10;98762.00;;;;338652;28;92431;-86
2022/08/14 01:21:02;;;;;;;;;;;26.30;81.20;26.30;98759.00;;;;341311;28;90924;-86
2022/08/14 01:21:15;;;;;;;;;;;26.40;82.70;26.30;98753.00;;;;341786;28;82432;-86
2022/08/14 01:21:38;;;;;;;;;;;26.40;82.80;26.40;98753.00;;;;338730;28;89011;-86
2022/08/14 01:21:58;;;;;;;;;;;26.40;81.50;26.40;98752.00;;;;341683;28;83614;-86
2022/08/14 01:22:10;;;;;;;;;;;26.40;80.60;26.30;98750.00;;;;339884;28;91363;-86
2022/08/14 01:22:23;;;;;;;;;;;26.40;81.20;26.30;98751.00;;;;341824;28;82430;-86
2022/08/14 01:22:37;;;;;;;;;;;26.40;81.30;26.40;98740.00;;;;341261;28;92104;-86
2022/08/14 01:22:53;;;;;;;;;;;26.40;80.30;26.40;98741.00;;;;338823;28;82450;-86
2022/08/14 01:23:10;;;;;;;;;;;26.40;80.50;26.40;98746.00;;;;338257;28;93238;-86
2022/08/14 01:23:33;;;;;;;;;;;26.40;81.40;26.40;98748.00;;;;339072;28;83333;-86
2022/08/14 01:23:57;;;;;;;;;;;26.40;80.60;26.40;98744.00;;;;341348;28;89457;-86
2022/08/14 01:24:14;;;;;;;;;;;26.40;82.40;26.50;98741.00;;;;341658;28;83157;-86
2022/08/14 01:24:35;;;;;;;;;;;26.50;81.20;26.60;98738.00;;;;339909;28;92134;-85
2022/08/14 01:24:47;;;;;;;;;;;26.50;82.20;26.50;98739.00;;;;339077;28;82415;-86
2022/08/14 01:25:02;;;;;;;;;;;26.50;82.20;26.60;98743.00;;;;338502;28;91873;-86
2022/08/14 01:25:14;;;;;;;;;;;26.50;81.00;26.50;98738.00;;;;340377;28;83188;-86
2022/08/14 01:25:27;;;;;;;;;;;26.50;80.40;26.50;98738.00;;;;340000;28;88894;-86
2022/08/14 01:25:39;;;;;;;;;;;26.50;80.10;26.50;98742.00;;;;341659;28;83652;-86
2022/08/14 01:25:50;;;;;;;;;;;26.50;80.00;26.50;98735.00;;;;340013;28;89134;-86